sensor_id;sensor_type;location;lat;lon;timestamp;P1;durP1;ratioP1;P2;durP2;ratioP2
15258;SDS011;34462;51.368;12.364;2024-03-02T00:01:43;40.83;;;28.07;;
15258;SDS011;34462;51.368;12.364;2024-03-02T00:04:13;40.87;;;28.97;;
15258;SDS011;34462;51.368;12.364;2024-03-02T00:06:43;43.43;;;28.13;;
15258;SDS011;34462;51.368;12.364;2024-03-02T00:09:11;37.83;;;27.17;;
15258;SDS011;34462;51.368;12.364;2024-03-02T00:11:47;42.07;;;28.00;;
15258;SDS011;34462;51.368;12.364;2024-03-02T00:14:15;43.73;;;27.27;;
15258;SDS011;34462;51.368;12.364;2024-03-02T00:16:52;44.03;;;27.33;;
15258;SDS011;34462;51.368;12.364;2024-03-02T00:19:23;44.83;;;28.33;;
15258;SDS011;34462;51.368;12.364;2024-03-02T00:21:51;42.43;;;28.67;;
15258;SDS011;34462;51.368;12.364;2024-03-02T00:24:24;39.17;;;26.63;;
15258;SDS011;34462;51.368;12.364;2024-03-02T00:27:05;42.13;;;27.07;;
15258;SDS011;34462;51.368;12.364;2024-03-02T00:29:37;39.83;;;27.70;;
15258;SDS011;34462;51.368;12.364;2024-03-02T00:32:12;39.40;;;26.27;;
15258;SDS011;34462;51.368;12.364;2024-03-02T00:34:48;38.50;;;26.50;;
15258;SDS011;34462;51.368;12.364;2024-03-02T00:37:16;40.73;;;27.70;;
15258;SDS011;34462;51.368;12.364;2024-03-02T00:39:49;40.30;;;28.00;;
15258;SDS011;34462;51.368;12.364;2024-03-02T00:42:17;42.80;;;27.83;;
15258;SDS011;34462;51.368;12.364;2024-03-02T00:44:51;39.30;;;26.90;;
15258;SDS011;34462;51.368;12.364;2024-03-02T00:47:23;42.83;;;29.77;;
15258;SDS011;34462;51.368;12.364;2024-03-02T00:49:51;42.27;;;28.60;;
15258;SDS011;34462;51.368;12.364;2024-03-02T00:52:21;45.17;;;29.07;;
15258;SDS011;34462;51.368;12.364;2024-03-02T00:54:51;42.03;;;27.47;;
15258;SDS011;34462;51.368;12.364;2024-03-02T00:57:29;44.00;;;28.50;;
15258;SDS011;34462;51.368;12.364;2024-03-02T01:00:02;40.57;;;28.63;;
15258;SDS011;34462;51.368;12.364;2024-03-02T01:02:37;45.97;;;28.47;;
15258;SDS011;34462;51.368;12.364;2024-03-02T01:05:12;41.47;;;27.47;;
15258;SDS011;34462;51.368;12.364;2024-03-02T01:07:43;40.97;;;27.57;;
15258;SDS011;34462;51.368;12.364;2024-03-02T01:10:11;40.17;;;26.77;;
15258;SDS011;34462;51.368;12.364;2024-03-02T01:12:41;47.50;;;29.77;;
15258;SDS011;34462;51.368;12.364;2024-03-02T01:15:11;43.60;;;27.37;;
15258;SDS011;34462;51.368;12.364;2024-03-02T01:17:44;45.33;;;28.73;;
15258;SDS011;34462;51.368;12.364;2024-03-02T01:20:12;42.70;;;28.17;;
15258;SDS011;34462;51.368;12.364;2024-03-02T01:22:44;41.33;;;27.90;;
15258;SDS011;34462;51.368;12.364;2024-03-02T01:25:13;38.43;;;25.73;;
15258;SDS011;34462;51.368;12.364;2024-03-02T01:27:43;39.07;;;26.47;;
15258;SDS011;34462;51.368;12.364;2024-03-02T01:30:15;39.03;;;26.30;;
15258;SDS011;34462;51.368;12.364;2024-03-02T01:32:50;38.67;;;26.07;;
15258;SDS011;34462;51.368;12.364;2024-03-02T01:35:20;37.03;;;25.67;;
15258;SDS011;34462;51.368;12.364;2024-03-02T01:37:50;41.30;;;27.13;;
15258;SDS011;34462;51.368;12.364;2024-03-02T01:40:19;35.50;;;25.07;;
15258;SDS011;34462;51.368;12.364;2024-03-02T01:42:52;36.97;;;25.47;;
15258;SDS011;34462;51.368;12.364;2024-03-02T01:45:28;38.30;;;25.73;;
15258;SDS011;34462;51.368;12.364;2024-03-02T01:47:58;38.20;;;26.10;;
15258;SDS011;34462;51.368;12.364;2024-03-02T01:50:32;38.73;;;25.13;;
15258;SDS011;34462;51.368;12.364;2024-03-02T01:53:03;37.40;;;26.00;;
15258;SDS011;34462;51.368;12.364;2024-03-02T01:55:31;36.40;;;25.87;;
15258;SDS011;34462;51.368;12.364;2024-03-02T01:58:01;36.43;;;23.13;;
15258;SDS011;34462;51.368;12.364;2024-03-02T02:00:31;37.77;;;23.17;;
15258;SDS011;34462;51.368;12.364;2024-03-02T02:03:03;33.60;;;22.13;;
15258;SDS011;34462;51.368;12.364;2024-03-02T02:05:32;31.93;;;22.00;;
15258;SDS011;34462;51.368;12.364;2024-03-02T02:08:03;32.63;;;22.50;;
15258;SDS011;34462;51.368;12.364;2024-03-02T02:10:32;28.67;;;20.93;;
15258;SDS011;34462;51.368;12.364;2024-03-02T02:13:03;31.20;;;20.93;;
15258;SDS011;34462;51.368;12.364;2024-03-02T02:15:31;31.80;;;20.87;;
15258;SDS011;34462;51.368;12.364;2024-03-02T02:18:04;28.67;;;20.73;;
15258;SDS011;34462;51.368;12.364;2024-03-02T02:20:32;27.87;;;20.23;;
15258;SDS011;34462;51.368;12.364;2024-03-02T02:23:04;31.00;;;20.83;;
15258;SDS011;34462;51.368;12.364;2024-03-02T02:25:34;30.53;;;19.67;;
15258;SDS011;34462;51.368;12.364;2024-03-02T02:28:03;26.10;;;19.47;;
15258;SDS011;34462;51.368;12.364;2024-03-02T02:30:32;27.17;;;19.77;;
15258;SDS011;34462;51.368;12.364;2024-03-02T02:33:03;27.97;;;19.80;;
15258;SDS011;34462;51.368;12.364;2024-03-02T02:35:31;27.97;;;18.67;;
15258;SDS011;34462;51.368;12.364;2024-03-02T02:38:00;28.10;;;19.30;;
15258;SDS011;34462;51.368;12.364;2024-03-02T02:40:33;24.97;;;17.90;;
15258;SDS011;34462;51.368;12.364;2024-03-02T02:43:03;27.37;;;19.03;;
15258;SDS011;34462;51.368;12.364;2024-03-02T02:45:33;25.97;;;18.57;;
15258;SDS011;34462;51.368;12.364;2024-03-02T02:48:03;27.53;;;18.10;;
15258;SDS011;34462;51.368;12.364;2024-03-02T02:50:32;24.80;;;18.40;;
15258;SDS011;34462;51.368;12.364;2024-03-02T02:53:03;29.57;;;18.83;;
15258;SDS011;34462;51.368;12.364;2024-03-02T02:55:35;24.57;;;18.87;;
15258;SDS011;34462;51.368;12.364;2024-03-02T02:58:09;26.57;;;18.53;;
15258;SDS011;34462;51.368;12.364;2024-03-02T03:00:37;25.23;;;17.47;;
15258;SDS011;34462;51.368;12.364;2024-03-02T03:03:10;27.00;;;19.00;;
15258;SDS011;34462;51.368;12.364;2024-03-02T03:05:43;25.90;;;18.23;;
15258;SDS011;34462;51.368;12.364;2024-03-02T03:08:11;28.93;;;18.43;;
15258;SDS011;34462;51.368;12.364;2024-03-02T03:10:43;25.43;;;17.47;;
15258;SDS011;34462;51.368;12.364;2024-03-02T03:13:11;26.70;;;18.17;;
15258;SDS011;34462;51.368;12.364;2024-03-02T03:15:42;27.67;;;18.30;;
15258;SDS011;34462;51.368;12.364;2024-03-02T03:18:11;23.37;;;17.60;;
15258;SDS011;34462;51.368;12.364;2024-03-02T03:20:43;27.50;;;18.50;;
15258;SDS011;34462;51.368;12.364;2024-03-02T03:23:13;27.83;;;18.53;;
15258;SDS011;34462;51.368;12.364;2024-03-02T03:25:43;25.43;;;18.77;;
15258;SDS011;34462;51.368;12.364;2024-03-02T03:28:11;27.43;;;19.17;;
15258;SDS011;34462;51.368;12.364;2024-03-02T03:30:41;26.60;;;18.60;;
15258;SDS011;34462;51.368;12.364;2024-03-02T03:33:11;23.67;;;17.47;;
15258;SDS011;34462;51.368;12.364;2024-03-02T03:35:40;23.30;;;17.60;;
15258;SDS011;34462;51.368;12.364;2024-03-02T03:38:12;23.53;;;17.27;;
15258;SDS011;34462;51.368;12.364;2024-03-02T03:40:43;25.67;;;17.27;;
15258;SDS011;34462;51.368;12.364;2024-03-02T03:43:11;23.17;;;17.00;;
15258;SDS011;34462;51.368;12.364;2024-03-02T03:45:42;24.13;;;16.60;;
15258;SDS011;34462;51.368;12.364;2024-03-02T03:48:11;27.93;;;18.20;;
15258;SDS011;34462;51.368;12.364;2024-03-02T03:50:41;24.07;;;17.30;;
15258;SDS011;34462;51.368;12.364;2024-03-02T03:53:12;25.47;;;16.93;;
15258;SDS011;34462;51.368;12.364;2024-03-02T03:55:43;24.63;;;16.20;;
15258;SDS011;34462;51.368;12.364;2024-03-02T03:58:13;26.03;;;17.63;;
15258;SDS011;34462;51.368;12.364;2024-03-02T04:00:48;22.07;;;17.27;;
15258;SDS011;34462;51.368;12.364;2024-03-02T04:03:16;22.77;;;17.60;;
15258;SDS011;34462;51.368;12.364;2024-03-02T04:05:49;23.57;;;17.00;;
15258;SDS011;34462;51.368;12.364;2024-03-02T04:08:23;26.20;;;17.57;;
15258;SDS011;34462;51.368;12.364;2024-03-02T04:10:51;23.80;;;16.53;;
15258;SDS011;34462;51.368;12.364;2024-03-02T04:13:22;24.23;;;16.93;;
15258;SDS011;34462;51.368;12.364;2024-03-02T04:15:51;23.00;;;17.30;;
15258;SDS011;34462;51.368;12.364;2024-03-02T04:18:22;24.37;;;16.70;;
15258;SDS011;34462;51.368;12.364;2024-03-02T04:20:51;23.00;;;16.30;;
15258;SDS011;34462;51.368;12.364;2024-03-02T04:23:24;21.17;;;15.60;;
15258;SDS011;34462;51.368;12.364;2024-03-02T04:25:52;25.97;;;17.40;;
15258;SDS011;34462;51.368;12.364;2024-03-02T04:28:22;22.53;;;16.83;;
15258;SDS011;34462;51.368;12.364;2024-03-02T04:30:51;23.07;;;16.77;;
15258;SDS011;34462;51.368;12.364;2024-03-02T04:33:21;23.90;;;17.07;;
15258;SDS011;34462;51.368;12.364;2024-03-02T04:35:51;21.63;;;15.87;;
15258;SDS011;34462;51.368;12.364;2024-03-02T04:38:24;24.20;;;16.60;;
15258;SDS011;34462;51.368;12.364;2024-03-02T04:40:52;23.00;;;16.77;;
15258;SDS011;34462;51.368;12.364;2024-03-02T04:43:23;23.93;;;16.70;;
15258;SDS011;34462;51.368;12.364;2024-03-02T04:45:51;26.83;;;17.73;;
15258;SDS011;34462;51.368;12.364;2024-03-02T04:48:22;26.70;;;17.13;;
15258;SDS011;34462;51.368;12.364;2024-03-02T04:50:51;24.03;;;17.03;;
15258;SDS011;34462;51.368;12.364;2024-03-02T04:53:24;23.07;;;16.77;;
15258;SDS011;34462;51.368;12.364;2024-03-02T04:55:52;24.37;;;16.77;;
15258;SDS011;34462;51.368;12.364;2024-03-02T04:58:53;26.10;;;18.23;;
15258;SDS011;34462;51.368;12.364;2024-03-02T05:01:23;24.27;;;17.40;;
15258;SDS011;34462;51.368;12.364;2024-03-02T05:03:51;24.73;;;18.33;;
15258;SDS011;34462;51.368;12.364;2024-03-02T05:06:21;26.27;;;17.97;;
15258;SDS011;34462;51.368;12.364;2024-03-02T05:08:52;23.20;;;16.47;;
15258;SDS011;34462;51.368;12.364;2024-03-02T05:11:23;27.20;;;18.27;;
15258;SDS011;34462;51.368;12.364;2024-03-02T05:14:23;24.23;;;16.43;;
15258;SDS011;34462;51.368;12.364;2024-03-02T05:16:51;24.47;;;16.90;;
15258;SDS011;34462;51.368;12.364;2024-03-02T05:19:21;22.97;;;16.57;;
15258;SDS011;34462;51.368;12.364;2024-03-02T05:21:51;24.93;;;17.53;;
15258;SDS011;34462;51.368;12.364;2024-03-02T05:24:24;23.93;;;16.57;;
15258;SDS011;34462;51.368;12.364;2024-03-02T05:26:54;25.67;;;17.03;;
15258;SDS011;34462;51.368;12.364;2024-03-02T05:29:23;23.73;;;16.67;;
15258;SDS011;34462;51.368;12.364;2024-03-02T05:31:51;25.33;;;17.37;;
15258;SDS011;34462;51.368;12.364;2024-03-02T05:34:22;23.43;;;16.40;;
15258;SDS011;34462;51.368;12.364;2024-03-02T05:36:51;23.63;;;16.73;;
15258;SDS011;34462;51.368;12.364;2024-03-02T05:39:22;23.80;;;16.83;;
15258;SDS011;34462;51.368;12.364;2024-03-02T05:41:52;25.87;;;17.07;;
15258;SDS011;34462;51.368;12.364;2024-03-02T05:44:23;23.57;;;17.83;;
15258;SDS011;34462;51.368;12.364;2024-03-02T05:46:51;26.10;;;17.70;;
15258;SDS011;34462;51.368;12.364;2024-03-02T05:49:22;25.00;;;17.50;;
15258;SDS011;34462;51.368;12.364;2024-03-02T05:51:51;24.57;;;17.57;;
15258;SDS011;34462;51.368;12.364;2024-03-02T05:54:22;26.20;;;17.80;;
15258;SDS011;34462;51.368;12.364;2024-03-02T05:56:52;27.60;;;17.97;;
15258;SDS011;34462;51.368;12.364;2024-03-02T05:59:22;26.00;;;17.57;;
15258;SDS011;34462;51.368;12.364;2024-03-02T06:01:51;27.50;;;18.50;;
15258;SDS011;34462;51.368;12.364;2024-03-02T06:04:21;25.80;;;18.07;;
15258;SDS011;34462;51.368;12.364;2024-03-02T06:06:51;24.23;;;17.20;;
15258;SDS011;34462;51.368;12.364;2024-03-02T06:09:23;26.23;;;17.40;;
15258;SDS011;34462;51.368;12.364;2024-03-02T06:11:53;25.13;;;17.87;;
15258;SDS011;34462;51.368;12.364;2024-03-02T06:14:22;27.37;;;18.53;;
15258;SDS011;34462;51.368;12.364;2024-03-02T06:16:51;26.73;;;18.20;;
15258;SDS011;34462;51.368;12.364;2024-03-02T06:19:26;24.30;;;17.17;;
15258;SDS011;34462;51.368;12.364;2024-03-02T06:21:54;28.70;;;18.47;;
15258;SDS011;34462;51.368;12.364;2024-03-02T06:24:24;25.43;;;17.90;;
15258;SDS011;34462;51.368;12.364;2024-03-02T06:26:53;25.73;;;17.53;;
15258;SDS011;34462;51.368;12.364;2024-03-02T06:29:22;28.07;;;18.47;;
15258;SDS011;34462;51.368;12.364;2024-03-02T06:31:51;24.30;;;17.73;;
15258;SDS011;34462;51.368;12.364;2024-03-02T06:34:22;27.23;;;17.73;;
15258;SDS011;34462;51.368;12.364;2024-03-02T06:36:51;25.10;;;18.10;;
15258;SDS011;34462;51.368;12.364;2024-03-02T06:39:21;28.67;;;19.17;;
15258;SDS011;34462;51.368;12.364;2024-03-02T06:41:53;27.33;;;18.07;;
15258;SDS011;34462;51.368;12.364;2024-03-02T06:44:23;28.67;;;19.17;;
15258;SDS011;34462;51.368;12.364;2024-03-02T06:46:51;29.70;;;20.60;;
15258;SDS011;34462;51.368;12.364;2024-03-02T06:49:23;27.20;;;18.43;;
15258;SDS011;34462;51.368;12.364;2024-03-02T06:51:51;25.87;;;18.40;;
15258;SDS011;34462;51.368;12.364;2024-03-02T06:54:21;27.50;;;18.43;;
15258;SDS011;34462;51.368;12.364;2024-03-02T06:56:52;25.90;;;18.23;;
15258;SDS011;34462;51.368;12.364;2024-03-02T06:59:23;27.43;;;19.37;;
15258;SDS011;34462;51.368;12.364;2024-03-02T07:01:51;26.33;;;18.73;;
15258;SDS011;34462;51.368;12.364;2024-03-02T07:04:21;27.27;;;19.47;;
15258;SDS011;34462;51.368;12.364;2024-03-02T07:06:51;27.73;;;19.60;;
15258;SDS011;34462;51.368;12.364;2024-03-02T07:09:23;27.70;;;19.10;;
15258;SDS011;34462;51.368;12.364;2024-03-02T07:11:53;29.93;;;19.93;;
15258;SDS011;34462;51.368;12.364;2024-03-02T07:14:23;30.10;;;20.53;;
15258;SDS011;34462;51.368;12.364;2024-03-02T07:17:11;28.57;;;19.40;;
15258;SDS011;34462;51.368;12.364;2024-03-02T07:19:41;27.87;;;19.17;;
15258;SDS011;34462;51.368;12.364;2024-03-02T07:22:11;27.67;;;19.53;;
15258;SDS011;34462;51.368;12.364;2024-03-02T07:24:43;31.20;;;18.40;;
15258;SDS011;34462;51.368;12.364;2024-03-02T07:27:12;29.77;;;18.90;;
15258;SDS011;34462;51.368;12.364;2024-03-02T07:29:42;29.20;;;19.77;;
15258;SDS011;34462;51.368;12.364;2024-03-02T07:32:11;29.37;;;18.90;;
15258;SDS011;34462;51.368;12.364;2024-03-02T07:34:43;27.97;;;18.43;;
15258;SDS011;34462;51.368;12.364;2024-03-02T07:37:11;28.40;;;18.40;;
15258;SDS011;34462;51.368;12.364;2024-03-02T07:39:43;26.50;;;19.40;;
15258;SDS011;34462;51.368;12.364;2024-03-02T07:42:12;29.67;;;19.67;;
15258;SDS011;34462;51.368;12.364;2024-03-02T07:44:43;30.03;;;19.97;;
15258;SDS011;34462;51.368;12.364;2024-03-02T07:47:11;26.40;;;18.10;;
15258;SDS011;34462;51.368;12.364;2024-03-02T07:49:44;28.57;;;20.23;;
15258;SDS011;34462;51.368;12.364;2024-03-02T07:52:12;28.27;;;17.93;;
15258;SDS011;34462;51.368;12.364;2024-03-02T07:54:44;24.33;;;17.40;;
15258;SDS011;34462;51.368;12.364;2024-03-02T07:57:13;25.77;;;18.50;;
15258;SDS011;34462;51.368;12.364;2024-03-02T07:59:43;28.27;;;19.07;;
15258;SDS011;34462;51.368;12.364;2024-03-02T08:02:11;26.23;;;17.47;;
15258;SDS011;34462;51.368;12.364;2024-03-02T08:04:41;28.57;;;18.47;;
15258;SDS011;34462;51.368;12.364;2024-03-02T08:07:12;25.70;;;17.40;;
15258;SDS011;34462;51.368;12.364;2024-03-02T08:09:44;25.43;;;17.90;;
15258;SDS011;34462;51.368;12.364;2024-03-02T08:12:13;24.33;;;17.33;;
15258;SDS011;34462;51.368;12.364;2024-03-02T08:14:43;26.40;;;18.33;;
15258;SDS011;34462;51.368;12.364;2024-03-02T08:17:11;23.93;;;17.63;;
15258;SDS011;34462;51.368;12.364;2024-03-02T08:19:43;24.50;;;17.93;;
15258;SDS011;34462;51.368;12.364;2024-03-02T08:22:12;25.47;;;17.73;;
15258;SDS011;34462;51.368;12.364;2024-03-02T08:24:43;26.10;;;18.07;;
15258;SDS011;34462;51.368;12.364;2024-03-02T08:27:13;23.60;;;17.80;;
15258;SDS011;34462;51.368;12.364;2024-03-02T08:29:43;24.97;;;17.33;;
15258;SDS011;34462;51.368;12.364;2024-03-02T08:32:11;25.07;;;16.93;;
15258;SDS011;34462;51.368;12.364;2024-03-02T08:34:42;23.03;;;17.43;;
15258;SDS011;34462;51.368;12.364;2024-03-02T08:37:11;23.20;;;17.53;;
15258;SDS011;34462;51.368;12.364;2024-03-02T08:39:43;22.77;;;17.00;;
15258;SDS011;34462;51.368;12.364;2024-03-02T08:42:14;25.23;;;18.47;;
15258;SDS011;34462;51.368;12.364;2024-03-02T08:44:44;22.77;;;15.73;;
15258;SDS011;34462;51.368;12.364;2024-03-02T08:47:12;22.60;;;16.43;;
15258;SDS011;34462;51.368;12.364;2024-03-02T08:49:43;23.33;;;16.50;;
15258;SDS011;34462;51.368;12.364;2024-03-02T08:52:11;24.67;;;18.47;;
15258;SDS011;34462;51.368;12.364;2024-03-02T08:54:43;23.77;;;17.03;;
15258;SDS011;34462;51.368;12.364;2024-03-02T08:57:13;22.87;;;16.57;;
15258;SDS011;34462;51.368;12.364;2024-03-02T08:59:43;23.23;;;17.00;;
15258;SDS011;34462;51.368;12.364;2024-03-02T09:02:12;26.03;;;17.97;;
15258;SDS011;34462;51.368;12.364;2024-03-02T09:04:41;25.03;;;17.40;;
15258;SDS011;34462;51.368;12.364;2024-03-02T09:07:11;23.73;;;17.23;;
15258;SDS011;34462;51.368;12.364;2024-03-02T09:09:40;20.73;;;15.93;;
15258;SDS011;34462;51.368;12.364;2024-03-02T09:12:12;27.85;;;17.30;;
15258;SDS011;34462;51.368;12.364;2024-03-02T09:14:43;23.90;;;17.60;;
15258;SDS011;34462;51.368;12.364;2024-03-02T09:17:13;26.20;;;18.40;;
15258;SDS011;34462;51.368;12.364;2024-03-02T09:19:42;22.60;;;16.80;;
15258;SDS011;34462;51.368;12.364;2024-03-02T09:22:11;24.63;;;18.23;;
15258;SDS011;34462;51.368;12.364;2024-03-02T09:24:43;23.30;;;17.07;;
15258;SDS011;34462;51.368;12.364;2024-03-02T09:27:13;26.10;;;17.27;;
15258;SDS011;34462;51.368;12.364;2024-03-02T09:29:43;24.00;;;17.25;;
15258;SDS011;34462;51.368;12.364;2024-03-02T09:32:12;24.13;;;18.17;;
15258;SDS011;34462;51.368;12.364;2024-03-02T09:34:43;23.08;;;17.50;;
15258;SDS011;34462;51.368;12.364;2024-03-02T09:37:11;22.45;;;17.48;;
15258;SDS011;34462;51.368;12.364;2024-03-02T09:39:41;25.83;;;17.20;;
15258;SDS011;34462;51.368;12.364;2024-03-02T09:42:13;22.02;;;17.15;;
15258;SDS011;34462;51.368;12.364;2024-03-02T09:44:43;23.80;;;17.10;;
15258;SDS011;34462;51.368;12.364;2024-03-02T09:47:12;22.58;;;17.35;;
15258;SDS011;34462;51.368;12.364;2024-03-02T09:49:43;21.13;;;15.75;;
15258;SDS011;34462;51.368;12.364;2024-03-02T09:52:11;19.83;;;15.00;;
15258;SDS011;34462;51.368;12.364;2024-03-02T09:54:43;24.92;;;16.00;;
15258;SDS011;34462;51.368;12.364;2024-03-02T09:57:12;20.67;;;15.63;;
15258;SDS011;34462;51.368;12.364;2024-03-02T09:59:42;20.15;;;15.32;;
15258;SDS011;34462;51.368;12.364;2024-03-02T10:02:12;20.65;;;15.35;;
15258;SDS011;34462;51.368;12.364;2024-03-02T10:04:42;20.33;;;14.82;;
15258;SDS011;34462;51.368;12.364;2024-03-02T10:07:13;21.67;;;15.40;;
15258;SDS011;34462;51.368;12.364;2024-03-02T10:09:46;20.70;;;14.53;;
15258;SDS011;34462;51.368;12.364;2024-03-02T10:12:17;18.30;;;14.53;;
15258;SDS011;34462;51.368;12.364;2024-03-02T10:14:51;18.45;;;14.90;;
15258;SDS011;34462;51.368;12.364;2024-03-02T10:17:34;17.63;;;13.20;;
15258;SDS011;34462;51.368;12.364;2024-03-02T10:22:51;19.95;;;15.48;;
15258;SDS011;34462;51.368;12.364;2024-03-02T10:25:29;19.75;;;14.85;;
15258;SDS011;34462;51.368;12.364;2024-03-02T10:28:17;17.98;;;14.02;;
15258;SDS011;34462;51.368;12.364;2024-03-02T10:30:50;18.17;;;13.18;;
15258;SDS011;34462;51.368;12.364;2024-03-02T10:33:22;18.80;;;13.93;;
15258;SDS011;34462;51.368;12.364;2024-03-02T10:35:52;16.13;;;12.68;;
15258;SDS011;34462;51.368;12.364;2024-03-02T10:38:21;18.25;;;13.52;;
15258;SDS011;34462;51.368;12.364;2024-03-02T10:40:52;17.58;;;13.20;;
15258;SDS011;34462;51.368;12.364;2024-03-02T10:43:25;15.60;;;12.50;;
15258;SDS011;34462;51.368;12.364;2024-03-02T10:45:53;17.25;;;12.20;;
15258;SDS011;34462;51.368;12.364;2024-03-02T10:48:25;14.55;;;10.80;;
15258;SDS011;34462;51.368;12.364;2024-03-02T10:50:54;14.95;;;11.52;;
15258;SDS011;34462;51.368;12.364;2024-03-02T10:53:25;12.18;;;10.07;;
15258;SDS011;34462;51.368;12.364;2024-03-02T10:55:55;14.00;;;11.18;;
15258;SDS011;34462;51.368;12.364;2024-03-02T10:58:31;16.20;;;10.93;;
15258;SDS011;34462;51.368;12.364;2024-03-02T11:01:00;13.57;;;10.55;;
15258;SDS011;34462;51.368;12.364;2024-03-02T11:03:32;15.02;;;11.13;;
15258;SDS011;34462;51.368;12.364;2024-03-02T11:06:06;12.30;;;9.75;;
15258;SDS011;34462;51.368;12.364;2024-03-02T11:08:36;12.82;;;9.43;;
15258;SDS011;34462;51.368;12.364;2024-03-02T11:11:12;10.35;;;8.57;;
15258;SDS011;34462;51.368;12.364;2024-03-02T11:13:50;8.60;;;6.97;;
15258;SDS011;34462;51.368;12.364;2024-03-02T11:16:25;8.02;;;6.90;;
15258;SDS011;34462;51.368;12.364;2024-03-02T11:19:03;10.85;;;7.40;;
15258;SDS011;34462;51.368;12.364;2024-03-02T11:21:34;10.75;;;7.80;;
15258;SDS011;34462;51.368;12.364;2024-03-02T11:27:06;10.73;;;8.32;;
15258;SDS011;34462;51.368;12.364;2024-03-02T11:29:45;12.60;;;9.15;;
15258;SDS011;34462;51.368;12.364;2024-03-02T11:32:15;10.98;;;8.32;;
15258;SDS011;34462;51.368;12.364;2024-03-02T11:34:51;11.70;;;8.60;;
15258;SDS011;34462;51.368;12.364;2024-03-02T11:37:22;11.85;;;8.68;;
15258;SDS011;34462;51.368;12.364;2024-03-02T11:39:52;11.00;;;8.45;;
15258;SDS011;34462;51.368;12.364;2024-03-02T11:42:23;12.55;;;9.57;;
15258;SDS011;34462;51.368;12.364;2024-03-02T11:44:55;14.18;;;9.48;;
15258;SDS011;34462;51.368;12.364;2024-03-02T11:47:31;10.25;;;8.48;;
15258;SDS011;34462;51.368;12.364;2024-03-02T11:50:04;11.68;;;9.15;;
15258;SDS011;34462;51.368;12.364;2024-03-02T11:52:34;11.10;;;8.52;;
15258;SDS011;34462;51.368;12.364;2024-03-02T11:55:03;10.10;;;8.43;;
15258;SDS011;34462;51.368;12.364;2024-03-02T11:57:35;11.25;;;8.98;;
15258;SDS011;34462;51.368;12.364;2024-03-02T12:00:17;10.82;;;8.27;;
15258;SDS011;34462;51.368;12.364;2024-03-02T12:02:59;12.63;;;9.30;;
15258;SDS011;34462;51.368;12.364;2024-03-02T12:05:31;12.35;;;9.00;;
15258;SDS011;34462;51.368;12.364;2024-03-02T12:08:04;11.45;;;7.70;;
15258;SDS011;34462;51.368;12.364;2024-03-02T12:10:34;10.98;;;8.25;;
15258;SDS011;34462;51.368;12.364;2024-03-02T12:13:05;11.15;;;9.00;;
15258;SDS011;34462;51.368;12.364;2024-03-02T12:15:38;11.02;;;8.57;;
15258;SDS011;34462;51.368;12.364;2024-03-02T12:18:11;12.75;;;8.52;;
15258;SDS011;34462;51.368;12.364;2024-03-02T12:20:43;11.70;;;8.60;;
15258;SDS011;34462;51.368;12.364;2024-03-02T12:23:12;9.63;;;7.70;;
15258;SDS011;34462;51.368;12.364;2024-03-02T12:25:43;9.60;;;6.63;;
15258;SDS011;34462;51.368;12.364;2024-03-02T12:28:12;9.57;;;7.50;;
15258;SDS011;34462;51.368;12.364;2024-03-02T12:30:45;9.40;;;7.15;;
15258;SDS011;34462;51.368;12.364;2024-03-02T12:33:15;10.27;;;8.43;;
15258;SDS011;34462;51.368;12.364;2024-03-02T12:35:45;9.30;;;7.70;;
15258;SDS011;34462;51.368;12.364;2024-03-02T12:38:13;11.05;;;8.15;;
15258;SDS011;34462;51.368;12.364;2024-03-02T12:40:43;11.43;;;9.07;;
15258;SDS011;34462;51.368;12.364;2024-03-02T12:43:12;10.02;;;8.43;;
15258;SDS011;34462;51.368;12.364;2024-03-02T12:45:45;9.73;;;7.45;;
15258;SDS011;34462;51.368;12.364;2024-03-02T12:48:14;9.88;;;7.35;;
15258;SDS011;34462;51.368;12.364;2024-03-02T12:50:43;8.75;;;6.88;;
15258;SDS011;34462;51.368;12.364;2024-03-02T12:53:14;9.68;;;7.53;;
15258;SDS011;34462;51.368;12.364;2024-03-02T12:55:43;9.18;;;7.20;;
15258;SDS011;34462;51.368;12.364;2024-03-02T12:58:19;8.68;;;7.22;;
15258;SDS011;34462;51.368;12.364;2024-03-02T13:01:06;9.82;;;6.93;;
15258;SDS011;34462;51.368;12.364;2024-03-02T13:03:36;9.07;;;7.35;;
15258;SDS011;34462;51.368;12.364;2024-03-02T13:06:10;7.75;;;6.80;;
15258;SDS011;34462;51.368;12.364;2024-03-02T13:08:43;8.10;;;6.78;;
15258;SDS011;34462;51.368;12.364;2024-03-02T13:11:13;8.27;;;6.95;;
15258;SDS011;34462;51.368;12.364;2024-03-02T13:13:43;7.93;;;6.45;;
15258;SDS011;34462;51.368;12.364;2024-03-02T13:16:13;8.93;;;7.18;;
15258;SDS011;34462;51.368;12.364;2024-03-02T13:18:44;8.20;;;6.18;;
15258;SDS011;34462;51.368;12.364;2024-03-02T13:21:12;7.80;;;6.38;;
15258;SDS011;34462;51.368;12.364;2024-03-02T13:23:43;7.03;;;5.90;;
15258;SDS011;34462;51.368;12.364;2024-03-02T13:26:12;7.20;;;6.25;;
15258;SDS011;34462;51.368;12.364;2024-03-02T13:28:43;7.95;;;6.15;;
15258;SDS011;34462;51.368;12.364;2024-03-02T13:31:12;8.55;;;6.60;;
15258;SDS011;34462;51.368;12.364;2024-03-02T13:33:43;7.30;;;5.95;;
15258;SDS011;34462;51.368;12.364;2024-03-02T13:36:12;7.90;;;5.65;;
15258;SDS011;34462;51.368;12.364;2024-03-02T13:38:43;7.90;;;5.93;;
15258;SDS011;34462;51.368;12.364;2024-03-02T13:41:12;6.97;;;5.90;;
15258;SDS011;34462;51.368;12.364;2024-03-02T13:43:42;6.60;;;5.50;;
15258;SDS011;34462;51.368;12.364;2024-03-02T13:46:12;7.95;;;6.20;;
15258;SDS011;34462;51.368;12.364;2024-03-02T13:48:43;8.02;;;7.10;;
15258;SDS011;34462;51.368;12.364;2024-03-02T13:51:12;8.98;;;7.00;;
15258;SDS011;34462;51.368;12.364;2024-03-02T13:53:43;8.30;;;7.43;;
15258;SDS011;34462;51.368;12.364;2024-03-02T13:56:11;9.52;;;7.40;;
15258;SDS011;34462;51.368;12.364;2024-03-02T13:58:47;9.25;;;7.70;;
15258;SDS011;34462;51.368;12.364;2024-03-02T14:01:17;9.30;;;6.97;;
15258;SDS011;34462;51.368;12.364;2024-03-02T14:03:50;8.23;;;6.50;;
15258;SDS011;34462;51.368;12.364;2024-03-02T14:06:22;7.70;;;6.90;;
15258;SDS011;34462;51.368;12.364;2024-03-02T14:08:53;8.68;;;6.80;;
15258;SDS011;34462;51.368;12.364;2024-03-02T14:11:23;8.27;;;7.00;;
15258;SDS011;34462;51.368;12.364;2024-03-02T14:13:52;8.73;;;7.10;;
15258;SDS011;34462;51.368;12.364;2024-03-02T14:16:25;7.78;;;6.97;;
15258;SDS011;34462;51.368;12.364;2024-03-02T14:18:53;7.57;;;6.78;;
15258;SDS011;34462;51.368;12.364;2024-03-02T14:21:26;8.88;;;7.20;;
15258;SDS011;34462;51.368;12.364;2024-03-02T14:23:54;7.80;;;6.68;;
15258;SDS011;34462;51.368;12.364;2024-03-02T14:26:23;8.18;;;6.80;;
15258;SDS011;34462;51.368;12.364;2024-03-02T14:28:52;8.52;;;6.78;;
15258;SDS011;34462;51.368;12.364;2024-03-02T14:31:25;8.18;;;6.65;;
15258;SDS011;34462;51.368;12.364;2024-03-02T14:33:53;6.93;;;6.22;;
15258;SDS011;34462;51.368;12.364;2024-03-02T14:36:23;7.63;;;6.20;;
15258;SDS011;34462;51.368;12.364;2024-03-02T14:38:54;7.07;;;6.18;;
15258;SDS011;34462;51.368;12.364;2024-03-02T14:41:23;7.40;;;5.97;;